createdAt,value
2019-05-17T00:00:47.907Z,57.2
2019-05-17T00:05:47.918Z,57.77
2019-05-17T00:10:54.227Z,58.07
2019-05-17T00:15:56.898Z,58.07
2019-05-17T00:20:57.183Z,57.69
2019-05-17T00:25:56.763Z,57.27
2019-05-17T00:30:57.319Z,57.98
2019-05-17T00:35:56.618Z,57.19
2019-05-17T00:40:56.910Z,57.69
2019-05-17T00:45:57.666Z,58.63
2019-05-17T00:51:02.586Z,58.29
2019-05-17T00:55:57.570Z,58.92
2019-05-17T01:00:57.433Z,59.29
2019-05-17T01:05:59.823Z,58.92
2019-05-17T01:10:59.803Z,58.73
2019-05-17T01:15:59.919Z,59.44
2019-05-17T01:21:00.159Z,59.44
2019-05-17T01:26:00.095Z,59.19
2019-05-17T01:31:00.115Z,60.68
2019-05-17T01:36:00.155Z,60.49
2019-05-17T01:41:00.418Z,61.76
2019-05-17T01:46:00.299Z,62.91
2019-05-17T01:51:00.672Z,61.92
2019-05-17T01:56:00.438Z,62.75
2019-05-17T02:01:08.032Z,63.71
2019-05-17T02:06:08.032Z,63.38
2019-05-17T02:11:07.599Z,62.07
2019-05-17T02:16:07.736Z,61.51
2019-05-17T02:21:07.768Z,60.84
2019-05-17T02:26:07.882Z,60.15
2019-05-17T02:31:07.918Z,60.85
2019-05-17T02:36:07.959Z,59.95
2019-05-17T02:41:08.073Z,60.39
2019-05-17T02:46:08.113Z,59.98
2019-05-17T02:51:08.153Z,60.47
2019-05-17T02:56:13.878Z,60.24
2019-05-17T03:01:13.155Z,60.62
2019-05-17T03:06:13.991Z,60.85
2019-05-17T03:11:13.893Z,61.49
2019-05-17T03:16:15.153Z,60.17
2019-05-17T03:21:13.949Z,60.4
2019-05-17T03:26:13.585Z,60.78
2019-05-17T03:31:17.794Z,59.91
2019-05-17T03:36:17.983Z,60.02
2019-05-17T03:41:27.757Z,60.25
2019-05-17T03:46:14.396Z,60.65
2019-05-17T03:51:23.587Z,60.93
2019-05-17T03:56:22.690Z,61.33
2019-05-17T04:01:22.931Z,61.66
2019-05-17T04:06:19.889Z,61.26
2019-05-17T04:11:31.281Z,61.56
2019-05-17T04:16:24.062Z,62.39
2019-05-17T04:21:23.796Z,61.68
2019-05-17T04:26:23.227Z,61.91
2019-05-17T04:31:23.288Z,62.02
2019-05-17T04:36:22.887Z,63.46
2019-05-17T04:41:46.743Z,61.58
2019-05-17T04:46:27.056Z,62.0
2019-05-17T04:51:28.730Z,63.72
2019-05-17T04:56:28.767Z,62.72
2019-05-17T05:01:28.882Z,64.34
2019-05-17T05:06:28.911Z,66.37
2019-05-17T05:11:29.042Z,66.8
2019-05-17T05:16:31.832Z,66.61
2019-05-17T05:21:32.036Z,66.4
2019-05-17T05:26:31.247Z,67.02
2019-05-17T05:36:55.483Z,66.52
2019-05-17T05:42:10.563Z,66.63
2019-05-17T05:47:02.444Z,66.5
2019-05-17T05:52:02.231Z,65.47
2019-05-17T05:57:02.672Z,65.34
2019-05-17T06:02:02.090Z,65.45
2019-05-17T06:07:00.134Z,64.44
2019-05-17T06:12:02.690Z,64.54
2019-05-17T06:17:03.287Z,64.25
2019-05-17T06:22:02.967Z,64.52
2019-05-17T06:27:02.249Z,63.28
2019-05-17T06:32:02.826Z,62.74
2019-05-17T06:37:06.758Z,60.98
2019-05-17T06:42:07.406Z,60.2
2019-05-17T06:47:07.485Z,59.62
2019-05-17T06:52:07.597Z,60.02
2019-05-17T06:57:07.734Z,58.72
2019-05-17T07:02:10.613Z,58.19
2019-05-17T07:07:11.138Z,57.87
2019-05-17T07:12:10.830Z,56.94
2019-05-17T07:17:10.163Z,55.67
2019-05-17T07:22:09.837Z,55.49
2019-05-17T07:27:10.303Z,54.78
2019-05-17T07:32:16.422Z,55.18
2019-05-17T07:37:16.670Z,52.54
2019-05-17T07:42:16.819Z,53.47
2019-05-17T07:47:16.867Z,52.19
2019-05-17T07:52:16.946Z,52.51
2019-05-17T07:57:16.975Z,52.75
2019-05-17T08:02:17.016Z,51.31
2019-05-17T08:07:19.842Z,51.21
2019-05-17T08:12:20.220Z,50.66
2019-05-17T08:17:20.106Z,51.17
2019-05-17T08:22:19.648Z,49.08
2019-05-17T08:27:24.118Z,49.41
2019-05-17T08:32:24.154Z,50.44
2019-05-17T08:37:24.275Z,48.4
2019-05-17T08:42:24.311Z,46.97
2019-05-17T08:47:24.335Z,48.6
2019-05-17T08:52:24.519Z,46.51
2019-05-17T08:57:24.528Z,47.53
2019-05-17T09:02:24.715Z,45.47
2019-05-17T09:07:24.743Z,46.8
2019-05-17T09:12:24.778Z,44.4
2019-05-17T09:17:24.869Z,45.08
2019-05-17T09:22:31.170Z,43.14
2019-05-17T09:27:31.285Z,43.08
2019-05-17T09:32:31.318Z,42.72
2019-05-17T09:37:31.355Z,43.46
2019-05-17T09:42:31.518Z,43.77
2019-05-17T09:47:31.618Z,42.62
2019-05-17T09:52:31.619Z,40.85
2019-05-17T09:57:31.690Z,40.34
2019-05-17T10:02:31.814Z,41.22
2019-05-17T10:07:31.922Z,42.88
2019-05-17T10:12:31.959Z,42.04
2019-05-17T10:17:38.240Z,42.02
2019-05-17T10:22:40.537Z,38.71
2019-05-17T10:27:41.022Z,40.58
2019-05-17T10:32:41.206Z,39.46
2019-05-17T10:37:41.171Z,37.59
2019-05-17T10:42:40.194Z,39.43
2019-05-17T10:47:40.351Z,37.35
2019-05-17T10:52:41.427Z,37.76
2019-05-17T10:57:40.633Z,37.54
2019-05-17T11:02:40.771Z,35.32
2019-05-17T11:07:40.717Z,35.86
2019-05-17T11:12:45.338Z,36.69
2019-05-17T11:17:45.631Z,35.67
2019-05-17T11:22:45.748Z,37.45
2019-05-17T11:27:46.185Z,35.25
2019-05-17T11:32:47.121Z,37.09
2019-05-17T11:37:47.237Z,35.4
2019-05-17T11:42:47.274Z,34.51
2019-05-17T11:47:47.428Z,35.53
2019-05-17T11:52:47.442Z,36.02
2019-05-17T11:57:47.470Z,36.91
2019-05-17T12:02:47.552Z,35.16
2019-05-17T12:07:53.909Z,35.98
2019-05-17T12:12:53.954Z,35.38
2019-05-17T12:17:54.278Z,32.77
2019-05-17T12:22:54.209Z,33.12
2019-05-17T12:27:54.552Z,36.4
2019-05-17T12:32:55.059Z,32.2
2019-05-17T12:37:55.267Z,32.75
2019-05-17T12:42:55.443Z,32.68
2019-05-17T12:54:00.197Z,31.91
2019-05-17T12:59:00.236Z,31.95
2019-05-17T13:04:06.896Z,31.51
2019-05-17T13:09:06.813Z,32.26
2019-05-17T13:14:07.012Z,33.2
2019-05-17T13:19:07.128Z,33.68
2019-05-17T13:24:07.067Z,32.4
2019-05-17T13:29:07.106Z,34.1
2019-05-17T13:34:07.349Z,32.88
2019-05-17T13:39:09.100Z,31.5
2019-05-17T13:44:08.953Z,33.11
2019-05-17T13:49:08.986Z,32.31
2019-05-17T13:54:09.085Z,33.2
2019-05-17T13:59:15.683Z,34.17
2019-05-17T14:04:15.871Z,32.33
2019-05-17T14:09:15.742Z,34.56
2019-05-17T14:14:15.769Z,33.16
2019-05-17T14:19:15.960Z,34.15
2019-05-17T14:24:15.970Z,32.97
2019-05-17T14:29:16.335Z,32.62
2019-05-17T14:34:16.169Z,33.95
2019-05-17T14:39:16.461Z,32.45
2019-05-17T14:44:16.292Z,32.4
2019-05-17T14:49:16.326Z,33.71
2019-05-17T14:54:24.238Z,33.94
2019-05-17T14:59:24.255Z,34.23
2019-05-17T15:04:24.274Z,38.19
2019-05-17T15:09:24.566Z,36.98
2019-05-17T15:14:24.796Z,33.91
2019-05-17T15:19:24.601Z,34.24
2019-05-17T15:24:24.656Z,35.72
2019-05-17T15:29:24.776Z,38.58
2019-05-17T15:34:25.020Z,49.38
2019-05-17T15:39:24.943Z,54.53
2019-05-17T15:44:27.325Z,60.48
2019-05-17T15:49:29.262Z,62.15
2019-05-17T15:54:30.246Z,62.47
2019-05-17T15:59:30.478Z,61.88
2019-05-17T16:04:30.474Z,60.18
2019-05-17T16:09:30.511Z,61.28
2019-05-17T16:14:30.636Z,59.27
2019-05-17T16:19:30.664Z,60.38
2019-05-17T16:24:30.699Z,60.45
2019-05-17T16:29:30.813Z,59.36
2019-05-17T16:34:30.849Z,59.95
2019-05-17T16:39:30.965Z,58.25
2019-05-17T16:44:37.267Z,59.2
2019-05-17T16:49:37.776Z,59.64
2019-05-17T16:54:39.455Z,59.2
2019-05-17T16:59:39.454Z,59.17
2019-05-17T17:04:39.533Z,58.13
2019-05-17T17:09:39.563Z,55.61
2019-05-17T17:14:39.819Z,56.84
2019-05-17T17:19:40.023Z,56.89
2019-05-17T17:24:40.530Z,56.42
2019-05-17T17:29:40.668Z,55.65
2019-05-17T17:34:40.706Z,55.53
2019-05-17T17:39:47.119Z,55.57
2019-05-17T17:44:48.127Z,56.77
2019-05-17T17:49:50.595Z,56.68
2019-05-17T17:54:51.232Z,57.16
2019-05-17T17:59:51.300Z,57.53
2019-05-17T18:04:51.728Z,57.67
2019-05-17T18:09:51.956Z,57.92
2019-05-17T18:14:51.997Z,56.19
2019-05-17T18:19:52.173Z,56.19
2019-05-17T18:24:52.613Z,55.39
2019-05-17T18:29:52.589Z,55.3
2019-05-17T18:34:59.160Z,54.81
2019-05-17T18:39:59.127Z,54.55
2019-05-17T18:44:59.334Z,54.65
2019-05-17T18:49:59.815Z,54.84
2019-05-17T18:54:59.612Z,54.33
2019-05-17T18:59:59.796Z,54.11
2019-05-17T19:05:00.161Z,53.97
2019-05-17T19:10:00.456Z,54.2
2019-05-17T19:15:01.147Z,54.33
2019-05-17T19:20:00.522Z,55.66
2019-05-17T19:25:00.604Z,55.8
2019-05-17T19:30:06.969Z,56.09
2019-05-17T19:35:06.989Z,56.25
2019-05-17T19:40:06.993Z,55.4
2019-05-17T19:45:07.179Z,54.84
2019-05-17T19:50:07.211Z,54.87
2019-05-17T19:55:07.246Z,55.39
2019-05-17T20:00:07.398Z,55.51
2019-05-17T20:05:07.513Z,55.35
2019-05-17T20:10:07.699Z,55.59
2019-05-17T20:15:18.567Z,56.78
2019-05-17T20:20:08.431Z,56.74
2019-05-17T20:25:14.546Z,56.13
2019-05-17T20:30:14.626Z,56.42
2019-05-17T20:35:18.153Z,56.74
2019-05-17T20:40:14.763Z,57.61
2019-05-17T20:45:14.801Z,56.71
2019-05-17T20:50:14.918Z,55.74
2019-05-17T20:55:15.069Z,56.26
2019-05-17T21:00:17.529Z,56.87
2019-05-17T21:05:17.444Z,56.61
2019-05-17T21:10:17.482Z,56.7
2019-05-17T21:15:17.601Z,56.62
2019-05-17T21:20:23.894Z,55.97
2019-05-17T21:25:23.910Z,56.07
2019-05-17T21:30:24.002Z,55.76
2019-05-17T21:35:24.490Z,56.56
2019-05-17T21:40:24.976Z,57.05
2019-05-17T21:45:25.020Z,56.17
2019-05-17T21:50:25.664Z,56.21
2019-05-17T21:55:25.955Z,56.45
2019-05-17T22:00:25.816Z,56.39
2019-05-17T22:05:25.856Z,57.3
2019-05-17T22:10:25.894Z,57.37
2019-05-17T22:15:32.253Z,58.3
2019-05-17T22:20:32.284Z,57.88
2019-05-17T22:25:32.468Z,56.33
2019-05-17T22:30:32.547Z,58.47
2019-05-17T22:35:32.548Z,58.34
2019-05-17T22:40:32.664Z,58.32
2019-05-17T22:45:32.867Z,58.58
2019-05-17T22:50:32.869Z,57.86
2019-05-17T22:55:33.073Z,58.1
2019-05-17T23:00:33.120Z,59.8
2019-05-17T23:05:33.157Z,59.58
2019-05-17T23:10:40.183Z,61.12
2019-05-17T23:15:40.776Z,60.78
2019-05-17T23:20:40.818Z,61.27
2019-05-17T23:25:41.034Z,61.96
2019-05-17T23:30:41.544Z,62.0
2019-05-17T23:35:41.278Z,62.88
2019-05-17T23:40:41.238Z,61.38
2019-05-17T23:45:41.423Z,60.86
2019-05-17T23:50:41.383Z,61.52
2019-05-17T23:55:41.503Z,61.51
